Time;durP1;ratioP1;P1;durP2;ratioP2;P2;SDS_P1;SDS_P2;PMS_P1;PMS_P2;Temp;Humidity;BMP_temperature;BMP_pressure;BME280_temperature;BME280_humidity;BME280_pressure;Samples;Min_cycle;Max_cycle;Signal;HPM_P1;HPM_P2
2021/08/22 00:33:13;;;;;;;10.90;10.00;;;18.60;99.90;;;;;;5512264;23;20488;31
2021/08/22 00:35:40;;;;;;;10.27;8.00;;;18.60;99.90;;;;;;4998433;28;20872;-65
2021/08/22 00:38:07;;;;;;;10.57;9.63;;;18.60;99.90;;;;;;4999718;28;20480;-65
2021/08/22 01:15:07;;;;;;;8.27;7.50;;;18.40;99.90;;;;;;3593685;23;20944;-65
2021/08/22 01:17:41;;;;;;;9.87;8.87;;;18.50;99.90;;;;;;4999384;28;20534;-65
2021/08/22 01:20:15;;;;;;;7.77;7.17;;;18.50;99.90;;;;;;5003852;28;20499;-65
2021/08/22 01:22:45;;;;;;;7.67;6.73;;;18.50;99.90;;;;;;5018577;28;20800;-65
2021/08/22 01:25:13;;;;;;;8.80;8.10;;;18.50;99.90;;;;;;5018592;28;20472;-65
2021/08/22 01:27:42;;;;;;;7.53;6.83;;;18.50;99.90;;;;;;5016202;28;20562;-65
2021/08/22 01:30:14;;;;;;;7.27;6.60;;;18.40;99.90;;;;;;5017098;28;20547;-65
2021/08/22 01:32:44;;;;;;;7.60;6.90;;;18.40;99.90;;;;;;5002823;28;20534;-65
2021/08/22 01:35:13;;;;;;;6.97;6.47;;;18.40;99.90;;;;;;5017348;28;20476;-65
2021/08/22 01:37:42;;;;;;;7.97;7.27;;;18.30;99.90;;;;;;5015484;28;20471;-65
2021/08/22 01:40:11;;;;;;;7.27;6.63;;;18.30;99.90;;;;;;5012316;28;20504;-65
2021/08/22 01:42:41;;;;;;;7.57;6.83;;;18.20;99.90;;;;;;5017515;28;20464;-65
2021/08/22 01:45:10;;;;;;;7.07;6.47;;;18.10;99.90;;;;;;5007985;28;20493;-65
2021/08/22 01:47:40;;;;;;;7.40;6.73;;;18.10;99.90;;;;;;5017340;28;20913;-65
2021/08/22 01:50:11;;;;;;;7.23;6.63;;;18.00;99.90;;;;;;5017619;28;20492;-65
2021/08/22 01:52:39;;;;;;;8.47;6.97;;;17.90;99.90;;;;;;5017239;28;20504;-65
2021/08/22 01:55:07;;;;;;;8.27;7.50;;;17.90;99.90;;;;;;5016932;28;20940;-65
2021/08/22 01:57:34;;;;;;;7.63;6.80;;;17.90;99.90;;;;;;5017391;28;20909;-66
2021/08/22 02:00:05;;;;;;;8.37;7.57;;;17.90;99.90;;;;;;5018613;28;20507;-66
2021/08/22 02:02:32;;;;;;;9.33;7.40;;;17.90;99.90;;;;;;5014924;28;20503;-66
2021/08/22 02:05:01;;;;;;;7.37;6.77;;;17.80;99.90;;;;;;4998261;28;20475;-66
2021/08/22 02:07:32;;;;;;;8.10;7.20;;;17.70;99.90;;;;;;4998552;28;20468;-66
2021/08/22 02:10:05;;;;;;;7.80;7.10;;;17.70;99.90;;;;;;4998449;28;20464;-66
2021/08/22 02:12:33;;;;;;;6.93;6.33;;;17.60;99.90;;;;;;4998022;28;20975;-66
2021/08/22 02:15:01;;;;;;;7.03;6.43;;;17.60;99.90;;;;;;4997620;28;20558;-66
2021/08/22 02:17:34;;;;;;;6.80;6.20;;;17.60;99.90;;;;;;4998307;28;20731;-66
2021/08/22 02:20:03;;;;;;;6.40;5.87;;;17.60;99.90;;;;;;4998191;28;20492;-65
2021/08/22 02:22:32;;;;;;;6.20;5.60;;;17.60;99.90;;;;;;4998547;28;20465;-65
2021/08/22 02:25:00;;;;;;;6.17;5.57;;;17.60;99.90;;;;;;4997784;28;20556;-65
2021/08/22 02:27:29;;;;;;;7.30;6.63;;;17.70;99.90;;;;;;4998154;28;20833;-65
2021/08/22 02:29:56;;;;;;;6.13;5.53;;;17.70;99.90;;;;;;4998120;28;20504;-66
2021/08/22 02:32:24;;;;;;;6.60;6.00;;;17.60;99.90;;;;;;4998123;28;20496;-65
2021/08/22 02:34:51;;;;;;;6.40;5.80;;;17.70;99.90;;;;;;4997881;28;20501;-65
2021/08/22 02:37:18;;;;;;;6.23;5.70;;;17.60;99.90;;;;;;4998078;28;20504;-65
2021/08/22 02:39:47;;;;;;;6.13;5.63;;;17.60;99.90;;;;;;4998120;28;20469;-65
2021/08/22 02:42:15;;;;;;;6.80;6.17;;;17.60;99.90;;;;;;4997989;28;20457;-65
2021/08/22 02:44:42;;;;;;;6.70;5.90;;;17.60;99.90;;;;;;4997295;28;20465;-65
2021/08/22 02:47:09;;;;;;;8.97;6.77;;;17.60;99.90;;;;;;4997807;28;20488;-65
2021/08/22 02:49:37;;;;;;;7.50;6.70;;;17.60;99.90;;;;;;4997839;28;20551;-65
2021/08/22 02:52:05;;;;;;;8.40;7.70;;;17.60;99.90;;;;;;4997817;28;20588;-65
2021/08/22 02:54:32;;;;;;;7.97;7.17;;;17.70;99.90;;;;;;4997464;28;20503;-65
2021/08/22 02:57:00;;;;;;;7.77;7.07;;;17.60;99.90;;;;;;4997555;28;20511;-65
2021/08/22 02:59:29;;;;;;;8.40;7.17;;;17.70;99.90;;;;;;4997576;28;20500;-65
2021/08/22 03:01:56;;;;;;;8.23;7.27;;;17.70;99.90;;;;;;4997781;28;20460;-64
2021/08/22 03:04:23;;;;;;;7.57;6.70;;;17.70;99.90;;;;;;4997784;28;20496;-65
2021/08/22 03:06:50;;;;;;;10.17;8.27;;;17.80;99.90;;;;;;4997665;28;20465;-65
2021/08/22 03:09:17;;;;;;;10.33;9.47;;;17.80;99.90;;;;;;4997624;28;20464;-65
2021/08/22 03:11:44;;;;;;;12.13;10.93;;;17.70;99.90;;;;;;4997527;28;20488;-65
2021/08/22 03:14:12;;;;;;;12.07;10.77;;;17.60;99.90;;;;;;4997461;28;20852;-65
2021/08/22 03:16:39;;;;;;;14.70;13.40;;;17.60;99.90;;;;;;4997309;28;20865;-65
2021/08/22 03:19:06;;;;;;;19.23;17.33;;;17.70;99.90;;;;;;4997659;28;20590;-65
2021/08/22 03:21:33;;;;;;;24.63;22.17;;;17.80;99.90;;;;;;4997446;28;20465;-65
2021/08/22 03:24:00;;;;;;;25.63;23.20;;;17.80;99.90;;;;;;4997535;28;20556;-65
2021/08/22 03:26:27;;;;;;;29.33;26.57;;;17.80;99.90;;;;;;4997666;28;20941;-65
2021/08/22 03:28:54;;;;;;;31.00;28.10;;;17.70;99.90;;;;;;4997372;28;20469;-65
2021/08/22 03:31:23;;;;;;;32.27;29.27;;;17.70;99.90;;;;;;4997487;28;20841;-65
2021/08/22 03:33:50;;;;;;;31.40;28.50;;;17.80;99.90;;;;;;4997536;28;20798;-65
2021/08/22 03:36:18;;;;;;;31.87;28.77;;;17.80;99.90;;;;;;4999376;28;20529;-65
2021/08/22 03:38:45;;;;;;;31.53;28.60;;;17.80;99.90;;;;;;5001174;28;20464;-65
2021/08/22 03:41:12;;;;;;;30.00;27.27;;;17.80;99.90;;;;;;5001160;28;20511;-65
2021/08/22 03:43:39;;;;;;;28.47;25.87;;;17.80;99.90;;;;;;5000680;28;20461;-65
2021/08/22 03:46:06;;;;;;;29.23;26.67;;;17.70;99.90;;;;;;5000770;28;20567;-65
2021/08/22 03:48:34;;;;;;;29.00;26.57;;;17.80;99.90;;;;;;5000960;28;20489;-65
2021/08/22 03:51:01;;;;;;;27.00;24.60;;;17.70;99.90;;;;;;5001183;28;20564;-65
2021/08/22 03:53:28;;;;;;;24.27;21.87;;;17.70;99.90;;;;;;5000798;28;20860;-65
2021/08/22 03:55:55;;;;;;;25.70;23.30;;;17.70;99.90;;;;;;5000901;28;20496;-65
2021/08/22 03:58:22;;;;;;;23.83;21.83;;;17.70;99.90;;;;;;5000908;28;20504;-65
2021/08/22 04:00:49;;;;;;;23.27;21.27;;;17.60;99.90;;;;;;5000836;28;20587;-65
2021/08/22 04:03:16;;;;;;;22.83;20.80;;;17.60;99.90;;;;;;5000571;28;20500;-65
2021/08/22 04:05:44;;;;;;;21.57;19.50;;;17.70;99.90;;;;;;5000609;28;20479;-65
2021/08/22 04:08:11;;;;;;;21.10;19.30;;;17.60;99.90;;;;;;5000712;28;20497;-65
2021/08/22 04:10:38;;;;;;;21.73;19.83;;;17.60;99.90;;;;;;5000159;28;20527;-65
2021/08/22 04:13:07;;;;;;;21.30;19.33;;;17.70;99.90;;;;;;4999782;28;20945;-65
2021/08/22 04:15:34;;;;;;;21.97;20.00;;;17.60;99.90;;;;;;5000565;28;20485;-65
2021/08/22 04:18:01;;;;;;;21.63;19.67;;;17.60;99.90;;;;;;5000434;28;20554;-65
2021/08/22 04:20:28;;;;;;;19.67;18.03;;;17.60;99.90;;;;;;5000602;28;20504;-65
2021/08/22 04:22:56;;;;;;;22.53;20.67;;;17.60;99.90;;;;;;5000297;28;20492;-65
2021/08/22 04:25:23;;;;;;;22.30;20.30;;;17.60;99.90;;;;;;5000138;28;20508;-65
2021/08/22 04:27:53;;;;;;;22.00;20.10;;;17.60;99.90;;;;;;5000638;28;20493;-65
2021/08/22 04:30:22;;;;;;;21.47;19.67;;;17.70;99.90;;;;;;4999887;28;20484;-65
2021/08/22 04:32:49;;;;;;;23.90;21.47;;;17.60;99.90;;;;;;5000079;28;20496;-65
2021/08/22 04:35:16;;;;;;;23.20;21.20;;;17.60;99.90;;;;;;4999656;28;20473;-65
2021/08/22 04:37:43;;;;;;;22.67;20.27;;;17.60;99.90;;;;;;5000092;28;20504;-65
2021/08/22 04:40:12;;;;;;;23.43;21.23;;;17.60;99.90;;;;;;5000338;28;20538;-65
2021/08/22 04:42:39;;;;;;;24.60;22.40;;;17.60;99.90;;;;;;5000154;28;20551;-65
2021/08/22 04:45:07;;;;;;;22.47;20.47;;;17.70;99.90;;;;;;4999529;28;20556;-65
2021/08/22 04:47:34;;;;;;;21.50;19.50;;;17.70;99.90;;;;;;5000011;28;20512;-65
2021/08/22 04:50:01;;;;;;;19.20;17.60;;;17.60;99.90;;;;;;5000053;28;20559;-65
2021/08/22 04:52:28;;;;;;;20.47;18.47;;;17.60;99.90;;;;;;4999964;28;20592;-65
2021/08/22 04:54:55;;;;;;;21.23;19.17;;;17.60;99.90;;;;;;4999925;28;20500;-65
2021/08/22 04:57:23;;;;;;;21.13;19.27;;;17.60;99.90;;;;;;5000017;28;20558;-65
2021/08/22 04:59:51;;;;;;;18.83;17.13;;;17.60;99.90;;;;;;4999485;28;20500;-65
2021/08/22 05:02:18;;;;;;;18.43;16.77;;;17.60;99.90;;;;;;5000125;28;20492;-65
2021/08/22 05:04:45;;;;;;;16.90;15.40;;;17.60;99.90;;;;;;4999171;28;20936;-65
2021/08/22 05:07:11;;;;;;;16.70;15.20;;;17.60;99.90;;;;;;4998720;28;20464;-65
2021/08/22 05:09:38;;;;;;;16.30;14.67;;;17.50;99.90;;;;;;4999672;28;20500;-65
2021/08/22 05:12:06;;;;;;;17.10;15.70;;;17.50;99.90;;;;;;4999547;28;20489;-65
2021/08/22 05:14:35;;;;;;;17.93;16.30;;;17.50;99.90;;;;;;4998659;28;20587;-65
2021/08/22 05:17:03;;;;;;;16.73;15.33;;;17.50;99.90;;;;;;4999115;28;20828;-64
2021/08/22 05:19:30;;;;;;;19.57;17.40;;;17.50;99.90;;;;;;4999253;28;20507;-64
2021/08/22 05:21:57;;;;;;;19.37;17.73;;;17.60;99.90;;;;;;4999518;28;20814;-64
2021/08/22 05:24:25;;;;;;;20.77;18.90;;;17.60;99.90;;;;;;4999638;28;20464;-64
2021/08/22 05:26:51;;;;;;;19.63;17.87;;;17.60;99.90;;;;;;4999181;28;20508;-64
2021/08/22 05:29:18;;;;;;;17.43;15.93;;;17.60;99.90;;;;;;4999224;28;20492;-64
2021/08/22 05:31:47;;;;;;;18.20;16.00;;;17.50;99.90;;;;;;4999099;28;20566;-64
2021/08/22 05:34:14;;;;;;;19.17;17.37;;;17.50;99.90;;;;;;4999037;28;20540;-64
2021/08/22 05:36:42;;;;;;;17.47;15.90;;;17.50;99.90;;;;;;4998743;28;20961;-64
2021/08/22 05:39:12;;;;;;;20.17;18.17;;;17.50;99.90;;;;;;4998868;28;20484;-64
2021/08/22 05:41:39;;;;;;;19.93;18.10;;;17.50;99.90;;;;;;4999004;28;20902;-64
2021/08/22 05:44:06;;;;;;;19.67;17.73;;;17.50;99.90;;;;;;4999196;28;20479;-64
2021/08/22 05:46:33;;;;;;;18.93;17.03;;;17.50;99.90;;;;;;4998639;28;20464;-64
2021/08/22 05:49:03;;;;;;;19.60;17.53;;;17.50;99.90;;;;;;4998833;28;20489;-64
2021/08/22 05:51:29;;;;;;;19.30;17.30;;;17.60;99.90;;;;;;4999202;28;20838;-63
2021/08/22 05:53:56;;;;;;;20.23;18.23;;;17.50;99.90;;;;;;4998705;28;20864;-63
2021/08/22 05:56:23;;;;;;;21.43;19.30;;;17.50;99.90;;;;;;4998835;28;20501;-63
2021/08/22 05:58:50;;;;;;;21.33;19.07;;;17.50;99.90;;;;;;4998224;28;20757;-63
2021/08/22 06:01:17;;;;;;;20.90;18.70;;;17.50;99.90;;;;;;4998311;28;20930;-63
2021/08/22 06:03:44;;;;;;;23.73;20.00;;;17.50;99.90;;;;;;4998672;28;20497;-63
2021/08/22 06:06:13;;;;;;;22.23;20.03;;;17.60;99.90;;;;;;4998744;28;20492;-63
2021/08/22 06:08:39;;;;;;;21.20;19.00;;;17.70;99.90;;;;;;4998325;28;20531;-63
2021/08/22 06:11:06;;;;;;;19.97;17.97;;;17.80;99.90;;;;;;4998228;28;20465;-63
2021/08/22 06:13:33;;;;;;;21.23;19.07;;;17.90;99.90;;;;;;4998574;28;20535;-62
2021/08/22 06:16:00;;;;;;;20.40;18.30;;;18.00;99.90;;;;;;4997516;28;20524;-62
2021/08/22 06:18:27;;;;;;;21.87;19.67;;;18.00;99.90;;;;;;4998442;28;20461;-62
2021/08/22 06:20:54;;;;;;;20.43;18.23;;;18.10;99.90;;;;;;4997866;28;20504;-62
2021/08/22 06:23:23;;;;;;;18.23;16.33;;;18.00;99.90;;;;;;4998242;28;20884;-62
2021/08/22 06:25:52;;;;;;;19.63;17.63;;;18.00;99.90;;;;;;4998141;28;20465;-62
2021/08/22 06:28:22;;;;;;;18.43;16.80;;;18.00;99.90;;;;;;4998383;28;20461;-63
2021/08/22 06:30:49;;;;;;;19.70;17.60;;;17.90;99.90;;;;;;4997980;28;20475;-62
2021/08/22 06:33:16;;;;;;;19.33;16.93;;;17.80;99.90;;;;;;4997816;28;20497;-62
2021/08/22 06:35:43;;;;;;;18.47;16.57;;;17.70;99.90;;;;;;4998823;28;20924;-62
2021/08/22 06:38:10;;;;;;;17.50;15.67;;;17.80;99.90;;;;;;4998425;28;20547;-62
2021/08/22 06:40:38;;;;;;;18.33;16.20;;;17.80;99.90;;;;;;4997467;28;20461;-62
2021/08/22 06:43:05;;;;;;;16.03;14.43;;;17.90;99.90;;;;;;4998254;28;20505;-62
2021/08/22 06:45:32;;;;;;;15.40;13.97;;;17.80;99.90;;;;;;4997706;28;20471;-61
2021/08/22 06:47:59;;;;;;;17.00;15.27;;;18.10;99.90;;;;;;4997486;28;20564;-61
2021/08/22 06:50:26;;;;;;;17.80;16.20;;;18.10;99.90;;;;;;4998017;28;20807;-61
2021/08/22 06:52:53;;;;;;;17.63;15.63;;;18.20;99.90;;;;;;4998068;28;20583;-61
2021/08/22 06:55:20;;;;;;;16.90;15.30;;;18.10;99.90;;;;;;4997722;28;20468;-61
2021/08/22 06:57:50;;;;;;;17.77;15.97;;;18.10;99.90;;;;;;4997957;28;20944;-61
2021/08/22 07:00:20;;;;;;;17.17;15.47;;;18.00;99.90;;;;;;4998184;28;20507;-61
2021/08/22 07:02:50;;;;;;;19.13;17.33;;;18.00;99.90;;;;;;4997707;28;20970;-61
2021/08/22 07:05:17;;;;;;;20.00;18.17;;;17.90;99.90;;;;;;4997280;28;20956;-61
2021/08/22 07:07:44;;;;;;;18.50;16.73;;;17.80;99.90;;;;;;4997333;28;20751;-61
2021/08/22 07:10:12;;;;;;;21.47;19.33;;;17.90;99.90;;;;;;4999626;28;20505;-61
2021/08/22 07:12:39;;;;;;;21.23;19.20;;;18.00;99.90;;;;;;5001176;28;20507;-61
2021/08/22 07:15:08;;;;;;;22.83;20.63;;;18.00;99.90;;;;;;5001090;28;20803;-61
2021/08/22 07:17:37;;;;;;;22.07;19.87;;;18.00;99.90;;;;;;5001329;28;20507;-61
2021/08/22 07:20:05;;;;;;;21.93;19.43;;;18.00;99.90;;;;;;5001412;28;20467;-61
2021/08/22 07:22:33;;;;;;;22.93;20.83;;;18.00;99.90;;;;;;5001574;28;20948;-61
2021/08/22 07:25:04;;;;;;;22.70;20.40;;;18.10;99.90;;;;;;5004513;28;20483;-61
2021/08/22 07:27:31;;;;;;;22.70;20.50;;;18.20;99.90;;;;;;5009135;28;21553;-61
2021/08/22 07:29:58;;;;;;;19.40;17.60;;;18.30;99.90;;;;;;5007149;28;20957;-61
2021/08/22 07:32:27;;;;;;;20.50;18.60;;;18.50;99.90;;;;;;5010282;28;20456;-61
2021/08/22 07:34:54;;;;;;;19.47;17.53;;;18.50;99.90;;;;;;5004102;28;20520;-60
2021/08/22 07:37:21;;;;;;;17.43;15.70;;;18.60;99.90;;;;;;5000983;28;20504;-60
2021/08/22 07:39:50;;;;;;;18.03;16.33;;;18.50;99.90;;;;;;5000888;28;20525;-60
2021/08/22 07:42:17;;;;;;;18.63;17.07;;;18.40;99.90;;;;;;5001107;28;20769;-60
2021/08/22 07:44:44;;;;;;;19.13;17.33;;;18.50;99.90;;;;;;5002357;28;20488;-61
2021/08/22 07:47:11;;;;;;;18.07;16.47;;;18.60;99.90;;;;;;5010524;28;20467;-60
2021/08/22 07:49:42;;;;;;;17.30;15.80;;;18.60;99.90;;;;;;5012468;28;20484;-59
2021/08/22 07:52:09;;;;;;;18.33;16.73;;;18.60;99.90;;;;;;5000737;28;20507;-60
2021/08/22 07:54:36;;;;;;;16.13;14.73;;;18.70;99.90;;;;;;5015187;28;20523;-60
2021/08/22 07:57:04;;;;;;;15.70;14.20;;;18.80;99.90;;;;;;5020918;28;20506;-59
2021/08/22 07:59:34;;;;;;;16.13;14.63;;;18.90;99.90;;;;;;5020177;28;20464;-59
2021/08/22 08:02:01;;;;;;;15.90;14.40;;;19.00;99.90;;;;;;5014907;28;20785;-60
2021/08/22 08:04:28;;;;;;;14.20;13.00;;;19.10;99.90;;;;;;5000748;28;20460;-60
2021/08/22 08:06:56;;;;;;;14.10;12.73;;;19.00;99.90;;;;;;5001172;28;20460;-59
2021/08/22 08:09:23;;;;;;;14.30;13.00;;;19.00;99.90;;;;;;5000783;28;20488;-60
2021/08/22 08:12:00;;;;;;;13.23;11.93;;;18.90;99.90;;;;;;5000335;28;20475;-60
2021/08/22 08:14:29;;;;;;;14.60;13.20;;;18.90;99.90;;;;;;5000037;28;20500;-60
2021/08/22 09:28:02;;;;;;;13.97;12.67;;;19.60;99.90;;;;;;4997217;28;20492;-56
2021/08/22 09:31:19;;;;;;;13.07;11.97;;;19.90;99.90;;;;;;4998526;28;20500;-58
2021/08/22 09:34:23;;;;;;;13.77;12.60;;;19.80;99.90;;;;;;4997916;28;20496;-59
2021/08/22 09:37:34;;;;;;;13.50;12.30;;;19.90;99.90;;;;;;4999088;28;20506;-59
2021/08/22 09:40:41;;;;;;;12.43;11.43;;;19.80;99.90;;;;;;4998773;28;20531;-59
2021/08/22 09:43:45;;;;;;;11.50;9.40;;;19.90;99.90;;;;;;4998228;28;20544;-53
2021/08/22 10:20:47;;;;;;;13.00;11.90;;;21.70;99.90;;;;;;3523739;23;20493;-60
2021/08/22 10:23:51;;;;;;;12.20;11.27;;;21.80;99.90;;;;;;4998050;28;20464;-60
2021/08/22 10:26:47;;;;;;;13.50;11.43;;;21.90;99.90;;;;;;4998457;28;20474;-60
2021/08/22 10:29:17;;;;;;;10.80;9.90;;;22.10;99.90;;;;;;4998076;28;20750;-59
2021/08/22 10:32:20;;;;;;;10.07;9.17;;;22.40;99.90;;;;;;4997701;28;20501;-59
2021/08/22 10:35:14;;;;;;;9.87;9.07;;;23.20;99.90;;;;;;4997879;28;20527;-58
2021/08/22 10:37:45;;;;;;;9.20;8.40;;;23.40;99.90;;;;;;4997661;28;20480;-57
2021/08/22 12:20:52;;;;;;;5.27;4.77;;;25.60;73.00;;;;;;3294348;23;20484;-57
2021/08/22 12:23:29;;;;;;;7.70;5.70;;;25.40;69.20;;;;;;4998793;28;20457;-54
2021/08/22 12:25:57;;;;;;;6.63;5.90;;;25.50;73.40;;;;;;4981504;28;20477;-53
2021/08/22 12:28:53;;;;;;;6.13;5.00;;;25.20;65.60;;;;;;4980794;28;20466;-58
2021/08/22 12:31:37;;;;;;;8.77;5.80;;;25.10;65.60;;;;;;4980149;28;20473;-53
2021/08/22 12:34:07;;;;;;;23.07;20.93;;;24.80;66.70;;;;;;4980354;28;20501;-55
2021/08/22 12:36:38;;;;;;;6.63;5.70;;;24.30;68.80;;;;;;4979931;28;20476;-56
2021/08/22 12:39:07;;;;;;;5.97;5.50;;;23.80;69.10;;;;;;4980086;28;20476;-58
2021/08/22 12:41:44;;;;;;;5.60;5.10;;;23.80;72.50;;;;;;4983447;28;20488;-58
2021/08/22 12:44:13;;;;;;;6.47;5.80;;;24.10;72.10;;;;;;4980437;28;20485;-52
2021/08/22 12:46:41;;;;;;;5.60;4.67;;;24.50;71.80;;;;;;4980295;28;20540;-56
2021/08/22 12:49:09;;;;;;;7.77;5.90;;;24.70;71.90;;;;;;4980244;28;20542;-55
2021/08/22 12:51:38;;;;;;;5.30;4.80;;;24.80;69.20;;;;;;4980673;28;20462;-57
2021/08/22 12:54:06;;;;;;;6.03;5.43;;;24.90;69.30;;;;;;4980574;28;21036;-57
2021/08/22 12:56:38;;;;;;;6.27;5.67;;;24.80;70.40;;;;;;4979453;28;20879;-58
2021/08/22 12:59:05;;;;;;;6.90;5.43;;;24.80;70.10;;;;;;4979915;28;20506;-57
2021/08/22 13:01:32;;;;;;;7.83;5.70;;;24.70;70.90;;;;;;4979846;28;20466;-58
2021/08/22 13:04:02;;;;;;;5.40;4.90;;;24.70;71.10;;;;;;4980183;28;20525;-55
2021/08/22 13:06:31;;;;;;;7.30;5.30;;;24.80;72.90;;;;;;4979351;28;20462;-55
2021/08/22 13:09:01;;;;;;;5.20;4.70;;;25.10;69.80;;;;;;4979744;28;20462;-57
2021/08/22 13:11:30;;;;;;;6.00;5.40;;;25.20;67.70;;;;;;4979659;28;20548;-58
2021/08/22 13:13:56;;;;;;;6.63;5.20;;;25.00;68.00;;;;;;4979362;28;20994;-54
2021/08/22 13:16:24;;;;;;;7.33;5.90;;;24.40;71.50;;;;;;4979964;28;20465;-56
2021/08/22 13:18:54;;;;;;;6.80;6.20;;;24.40;73.10;;;;;;4983567;28;20528;-57
2021/08/22 13:21:22;;;;;;;7.20;5.40;;;24.00;76.30;;;;;;4979283;28;20521;-56
2021/08/22 13:23:52;;;;;;;8.70;5.90;;;23.70;79.20;;;;;;4979552;28;20469;-55
2021/08/22 13:26:21;;;;;;;6.33;5.70;;;23.40;80.90;;;;;;4992439;28;20950;-57
2021/08/22 13:28:50;;;;;;;7.70;5.87;;;23.20;80.30;;;;;;4998307;28;20469;-58
2021/08/22 13:31:17;;;;;;;5.97;5.33;;;22.80;84.60;;;;;;4998421;28;20511;-53
2021/08/22 13:33:44;;;;;;;5.47;4.97;;;22.80;90.50;;;;;;4999105;28;20465;-54
2021/08/22 13:36:13;;;;;;;10.50;5.80;;;23.30;90.30;;;;;;4999036;28;20547;-58
2021/08/22 13:38:42;;;;;;;6.17;5.63;;;24.10;78.80;;;;;;4998915;28;20497;-53
2021/08/22 13:41:11;;;;;;;5.83;5.23;;;24.60;74.70;;;;;;4998459;28;20524;-54
2021/08/22 13:43:40;;;;;;;5.23;4.63;;;24.70;68.50;;;;;;4999039;28;20523;-55
2021/08/22 13:46:10;;;;;;;5.70;5.20;;;24.50;71.70;;;;;;4998887;28;20464;-56
2021/08/22 13:48:37;;;;;;;6.57;4.87;;;23.80;74.40;;;;;;4998749;28;20464;-56
2021/08/22 13:51:06;;;;;;;6.90;5.37;;;23.50;76.20;;;;;;4998720;28;20956;-54
2021/08/22 13:53:33;;;;;;;4.90;4.50;;;24.30;77.70;;;;;;4998899;28;20531;-57
2021/08/22 13:56:03;;;;;;;5.50;5.00;;;24.90;73.00;;;;;;4998526;28;20941;-55
2021/08/22 13:58:30;;;;;;;5.90;4.77;;;25.30;69.80;;;;;;4998587;28;20461;-50
2021/08/22 14:01:00;;;;;;;5.63;4.60;;;25.50;70.80;;;;;;4997920;28;20471;-59
2021/08/22 14:03:27;;;;;;;6.30;5.70;;;25.60;69.30;;;;;;4998363;28;20539;-58
2021/08/22 14:05:54;;;;;;;5.10;4.60;;;25.20;72.40;;;;;;4998584;28;20897;-54
2021/08/22 14:08:21;;;;;;;7.90;4.70;;;25.30;71.00;;;;;;4998145;28;20469;-52
2021/08/22 14:10:50;;;;;;;5.60;5.10;;;25.60;72.20;;;;;;4997883;28;20475;-59
2021/08/22 14:13:24;;;;;;;6.30;5.13;;;26.20;68.80;;;;;;4998151;28;20461;-58
2021/08/22 14:15:52;;;;;;;7.70;5.40;;;26.20;68.30;;;;;;4998312;28;20496;-56
2021/08/22 14:18:21;;;;;;;6.00;5.07;;;26.10;67.40;;;;;;4993212;28;20466;-58
2021/08/22 14:20:48;;;;;;;6.30;5.70;;;25.20;70.40;;;;;;4991171;28;20489;-58
2021/08/22 14:23:15;;;;;;;8.43;4.90;;;24.60;75.20;;;;;;4987626;28;20545;-55
2021/08/22 14:25:47;;;;;;;6.23;5.37;;;23.90;78.80;;;;;;4985238;28;20851;-57
2021/08/22 14:28:17;;;;;;;6.80;4.70;;;23.40;88.20;;;;;;4983907;28;20534;-58
2021/08/22 14:30:47;;;;;;;6.00;4.30;;;23.70;92.00;;;;;;4997758;28;20512;-57
2021/08/22 14:33:20;;;;;;;5.20;4.50;;;24.20;89.70;;;;;;4997989;28;20538;-55
2021/08/22 14:35:47;;;;;;;3.40;3.20;;;24.40;87.40;;;;;;4998367;28;20955;-58
2021/08/22 14:38:14;;;;;;;2.97;2.70;;;24.00;87.10;;;;;;4994949;28;20488;-56
2021/08/22 14:40:41;;;;;;;3.20;2.90;;;23.40;90.30;;;;;;4988123;28;20495;-56
2021/08/22 14:43:08;;;;;;;3.73;3.30;;;23.30;94.40;;;;;;4985767;28;20927;-51
2021/08/22 14:45:40;;;;;;;4.33;3.07;;;23.90;93.80;;;;;;4988555;28;20454;-57
2021/08/22 14:48:10;;;;;;;2.80;2.60;;;24.70;90.80;;;;;;4986003;28;20817;-55
2021/08/22 14:50:38;;;;;;;3.33;2.83;;;24.80;85.10;;;;;;4983486;28;20501;-56
2021/08/22 14:53:05;;;;;;;4.07;2.80;;;24.20;91.30;;;;;;4988461;28;20465;-58
2021/08/22 14:55:35;;;;;;;3.97;2.70;;;24.00;91.20;;;;;;4986121;28;20524;-58
2021/08/22 14:58:05;;;;;;;2.73;2.53;;;24.10;91.10;;;;;;4988198;28;20461;-58
2021/08/22 15:00:32;;;;;;;3.33;3.03;;;24.10;91.30;;;;;;4985373;28;20457;-55
2021/08/22 15:02:59;;;;;;;2.57;2.37;;;23.50;93.30;;;;;;4986328;28;20460;-52
2021/08/22 15:05:29;;;;;;;3.00;2.80;;;23.40;97.10;;;;;;4982185;28;20458;-56
2021/08/22 15:07:58;;;;;;;2.93;2.73;;;24.00;94.60;;;;;;4985675;28;20891;-51
2021/08/22 15:10:25;;;;;;;2.73;2.53;;;24.20;92.60;;;;;;4986817;28;20501;-55
2021/08/22 15:12:52;;;;;;;2.63;2.40;;;23.90;90.30;;;;;;4984771;28;20560;-54
2021/08/22 15:15:19;;;;;;;3.20;2.90;;;24.00;92.30;;;;;;4985488;28;20508;-59
2021/08/22 15:17:47;;;;;;;3.77;3.27;;;24.20;92.10;;;;;;4986469;28;20492;-53
2021/08/22 15:20:16;;;;;;;3.87;3.00;;;24.50;90.10;;;;;;4986993;28;20503;-58
2021/08/22 15:22:42;;;;;;;3.40;3.17;;;23.90;91.30;;;;;;4985930;28;20817;-58
2021/08/22 15:25:14;;;;;;;3.33;3.13;;;23.20;95.00;;;;;;4985876;28;20481;-56
2021/08/22 15:27:43;;;;;;;3.67;3.37;;;22.60;97.90;;;;;;4985126;28;20555;-57
2021/08/22 15:30:13;;;;;;;3.90;3.60;;;22.60;99.90;;;;;;4987301;28;20957;-59
2021/08/22 15:32:41;;;;;;;5.93;5.43;;;22.50;99.90;;;;;;4987635;28;20461;-58
2021/08/22 15:35:08;;;;;;;4.10;3.73;;;22.40;99.90;;;;;;4988073;28;20484;-59
2021/08/22 15:37:37;;;;;;;3.90;3.60;;;22.70;99.90;;;;;;4991577;28;20465;-59
2021/08/22 15:40:05;;;;;;;3.80;3.50;;;22.70;99.90;;;;;;4989709;28;20848;-56
2021/08/22 15:42:35;;;;;;;4.47;3.90;;;22.90;99.90;;;;;;4990022;28;20540;-58
2021/08/22 15:45:02;;;;;;;4.30;3.97;;;23.30;99.90;;;;;;4988787;28;20480;-58
2021/08/22 15:47:29;;;;;;;4.47;3.23;;;23.10;99.00;;;;;;4990821;28;20905;-54
2021/08/22 15:49:56;;;;;;;4.20;3.90;;;23.00;99.90;;;;;;4990367;28;20440;-58
2021/08/22 15:52:25;;;;;;;4.30;3.90;;;23.10;99.90;;;;;;4991213;28;20495;-57
2021/08/22 15:54:54;;;;;;;3.57;3.33;;;23.20;99.00;;;;;;4989094;28;20580;-57
2021/08/22 15:57:22;;;;;;;3.77;3.47;;;22.80;99.90;;;;;;4989199;28;20890;-53
2021/08/22 15:59:53;;;;;;;3.40;3.20;;;22.80;99.90;;;;;;4990500;28;20460;-54
2021/08/22 16:02:20;;;;;;;4.20;3.90;;;22.80;98.30;;;;;;4990083;28;20465;-58
2021/08/22 16:04:47;;;;;;;4.07;2.90;;;22.70;98.30;;;;;;4987943;28;20461;-58
2021/08/22 16:07:16;;;;;;;3.80;3.50;;;22.60;99.90;;;;;;4989136;28;20463;-54
2021/08/22 16:09:47;;;;;;;4.07;3.77;;;23.10;99.10;;;;;;4990148;28;20463;-54
2021/08/22 16:12:14;;;;;;;3.90;3.60;;;23.30;99.30;;;;;;4989627;28;20520;-55
2021/08/22 16:14:41;;;;;;;3.70;3.20;;;23.60;97.80;;;;;;4988054;28;20560;-57
2021/08/22 16:17:10;;;;;;;4.03;3.63;;;23.50;97.10;;;;;;4988526;28;20944;-56
2021/08/22 16:19:40;;;;;;;5.60;4.77;;;23.20;97.00;;;;;;4989104;28;20562;-54
2021/08/22 16:22:07;;;;;;;4.63;3.70;;;23.10;97.60;;;;;;4984637;28;20504;-56
2021/08/22 16:24:34;;;;;;;3.43;3.10;;;22.60;99.50;;;;;;4980115;28;20468;-58
2021/08/22 16:27:01;;;;;;;4.53;4.13;;;22.10;99.90;;;;;;4980747;28;20461;-53
2021/08/22 16:29:31;;;;;;;4.63;4.00;;;22.10;99.90;;;;;;4981128;28;20908;-56
2021/08/22 16:31:58;;;;;;;4.23;3.93;;;22.10;99.90;;;;;;4980700;28;20520;-54
2021/08/22 16:34:28;;;;;;;4.90;4.40;;;21.90;99.90;;;;;;4979913;28;20508;-58
2021/08/22 16:36:55;;;;;;;4.40;4.00;;;21.90;99.90;;;;;;4980259;28;20529;-59
2021/08/22 16:39:25;;;;;;;4.50;4.20;;;22.00;99.90;;;;;;4980948;28;20466;-57
2021/08/22 16:41:53;;;;;;;4.50;4.10;;;22.10;99.90;;;;;;4980276;28;20590;-57
2021/08/22 16:44:24;;;;;;;4.70;4.30;;;22.40;99.90;;;;;;4980254;28;20525;-58
2021/08/22 16:46:51;;;;;;;4.53;4.13;;;22.40;99.90;;;;;;4979845;28;20500;-54
2021/08/22 16:49:21;;;;;;;4.60;4.17;;;22.50;99.90;;;;;;4980698;28;20942;-58
2021/08/22 16:51:50;;;;;;;4.57;4.10;;;22.40;99.90;;;;;;4980812;28;20496;-58
2021/08/22 16:54:16;;;;;;;4.47;4.10;;;22.10;99.90;;;;;;4980755;28;20925;-51
2021/08/22 16:56:45;;;;;;;5.40;4.00;;;21.70;99.90;;;;;;4980955;28;20980;-52
2021/08/22 16:59:12;;;;;;;5.77;4.63;;;21.80;99.90;;;;;;4985166;28;20821;-49
2021/08/22 17:01:39;;;;;;;4.87;4.47;;;21.90;99.90;;;;;;4980092;28;20581;-55
2021/08/22 17:04:06;;;;;;;4.90;4.43;;;21.80;99.90;;;;;;4979546;28;20528;-52
2021/08/22 17:06:33;;;;;;;5.07;4.10;;;21.70;99.90;;;;;;4978525;28;20462;-57
2021/08/22 17:09:08;;;;;;;4.90;4.50;;;21.70;99.90;;;;;;4979712;28;20505;-55
2021/08/22 17:11:40;;;;;;;4.30;3.90;;;21.70;99.90;;;;;;4986639;28;20491;-58
2021/08/22 17:14:07;;;;;;;4.83;3.90;;;21.80;99.90;;;;;;4999628;28;20504;-54
2021/08/22 17:16:34;;;;;;;4.70;4.27;;;21.70;99.90;;;;;;4999328;28;20988;-58
2021/08/22 17:19:01;;;;;;;4.63;4.23;;;21.70;99.90;;;;;;4999171;28;20567;-50
2021/08/22 19:38:42;;;;;;;11.03;8.23;;;17.90;99.90;;;;;;5302867;23;20635;-59